createdAt,value
2022-10-19T00:01:18.896Z,100591.00
2022-10-19T00:03:51.502Z,100594.00
2022-10-19T00:06:25.522Z,100599.00
2022-10-19T00:08:55.269Z,100599.00
2022-10-19T00:11:24.639Z,100596.00
2022-10-19T00:13:54.171Z,100605.00
2022-10-19T00:16:24.658Z,100611.00
2022-10-19T00:18:57.849Z,100603.00
2022-10-19T00:21:26.248Z,100616.00
2022-10-19T00:23:54.486Z,100602.00
2022-10-19T00:26:22.513Z,100577.00
2022-10-19T00:28:51.331Z,100606.00
2022-10-19T00:31:19.569Z,100621.00
2022-10-19T00:33:48.562Z,100607.00
2022-10-19T00:36:20.663Z,100621.00
2022-10-19T00:38:49.047Z,100609.00
2022-10-19T00:41:19.034Z,100619.00
2022-10-19T00:43:58.297Z,100613.00
2022-10-19T00:46:28.405Z,100605.00
2022-10-19T00:49:02.632Z,100610.00
2022-10-19T00:51:36.960Z,100609.00
2022-10-19T00:54:07.378Z,100606.00
2022-10-19T00:56:38.798Z,100603.00
2022-10-19T00:59:08.951Z,100597.00
2022-10-19T01:01:37.798Z,100601.00
2022-10-19T01:04:06.467Z,100597.00
2022-10-19T01:06:37.097Z,100595.00
2022-10-19T01:09:06.338Z,100591.00
2022-10-19T01:11:52.847Z,100583.00
2022-10-19T01:14:41.429Z,100578.00
2022-10-19T01:17:23.995Z,100587.00
2022-10-19T01:20:39.652Z,100576.00
2022-10-19T01:23:44.734Z,100576.00
2022-10-19T01:26:41.308Z,100576.00
2022-10-19T01:29:19.841Z,100574.00
2022-10-19T01:32:01.016Z,100577.00
2022-10-19T01:34:37.473Z,100591.00
2022-10-19T01:37:18.399Z,100580.00
2022-10-19T01:39:54.454Z,100574.00
2022-10-19T01:42:30.519Z,100583.00
2022-10-19T01:45:08.019Z,100578.00
2022-10-19T01:47:47.001Z,100580.00
2022-10-19T01:50:22.460Z,100577.00
2022-10-19T01:52:52.642Z,100581.00
2022-10-19T01:55:23.206Z,100570.00
2022-10-19T01:58:00.085Z,100587.00
2022-10-19T02:00:30.483Z,100583.00
2022-10-19T02:03:01.996Z,100580.00
2022-10-19T02:05:34.030Z,100583.00
2022-10-19T02:08:09.028Z,100581.00
2022-10-19T02:10:40.930Z,100586.00
2022-10-19T02:13:10.564Z,100583.00
2022-10-19T02:15:44.723Z,100582.00
2022-10-19T02:18:19.250Z,100577.00
2022-10-19T02:20:48.032Z,100577.00
2022-10-19T02:23:21.630Z,100579.00
2022-10-19T02:25:49.970Z,100588.00
2022-10-19T02:28:18.281Z,100589.00
2022-10-19T02:30:46.423Z,100592.00
2022-10-19T02:33:16.835Z,100590.00
2022-10-19T02:35:45.311Z,100589.00
2022-10-19T02:38:20.670Z,100579.00
2022-10-19T02:41:00.944Z,100573.00
2022-10-19T02:43:32.999Z,100583.00
2022-10-19T02:46:06.584Z,100554.00
2022-10-19T02:48:39.910Z,100587.00
2022-10-19T02:51:07.908Z,100577.00
2022-10-19T02:53:35.892Z,100572.00
2022-10-19T02:56:03.898Z,100576.00
2022-10-19T02:58:31.901Z,100568.00
2022-10-19T03:00:59.927Z,100563.00
2022-10-19T03:03:27.909Z,100575.00
2022-10-19T03:05:58.057Z,100569.00
2022-10-19T03:08:26.100Z,100581.00
2022-10-19T03:10:54.077Z,100566.00
2022-10-19T03:13:22.085Z,100560.00
2022-10-19T03:15:50.280Z,100566.00
2022-10-19T03:18:18.304Z,100560.00
2022-10-19T03:20:46.293Z,100554.00
2022-10-19T03:23:15.621Z,100563.00
2022-10-19T03:25:43.580Z,100567.00
2022-10-19T03:28:11.586Z,100565.00
2022-10-19T03:30:39.580Z,100567.00
2022-10-19T03:33:07.566Z,100575.00
2022-10-19T03:35:35.572Z,100572.00
2022-10-19T03:38:03.567Z,100578.00
2022-10-19T03:40:32.977Z,100582.00
2022-10-19T03:43:00.935Z,100583.00
2022-10-19T03:45:28.954Z,100586.00
2022-10-19T03:47:56.955Z,100586.00
2022-10-19T03:50:25.251Z,100587.00
2022-10-19T03:52:53.448Z,100591.00
2022-10-19T03:55:21.444Z,100588.00
2022-10-19T03:57:50.761Z,100578.00
2022-10-19T04:00:18.864Z,100588.00
2022-10-19T04:02:46.846Z,100579.00
2022-10-19T04:05:15.018Z,100581.00
2022-10-19T04:07:43.002Z,100593.00
2022-10-19T04:10:11.292Z,100588.00
2022-10-19T04:12:39.293Z,100590.00
2022-10-19T04:15:10.381Z,100583.00
2022-10-19T04:17:38.370Z,100587.00
2022-10-19T04:20:07.826Z,100561.00
2022-10-19T04:22:35.828Z,100591.00
2022-10-19T04:25:03.856Z,100589.00
2022-10-19T04:27:32.168Z,100598.00
2022-10-19T04:30:00.463Z,100586.00
2022-10-19T04:32:29.776Z,100601.00
2022-10-19T04:34:57.782Z,100598.00
2022-10-19T04:37:25.815Z,100603.00
2022-10-19T04:39:53.835Z,100612.00
2022-10-19T04:42:21.827Z,100612.00
2022-10-19T04:44:49.829Z,100608.00
2022-10-19T04:47:18.998Z,100607.00
2022-10-19T04:49:48.364Z,100602.00
2022-10-19T04:52:16.416Z,100607.00
2022-10-19T04:54:44.414Z,100608.00
2022-10-19T04:57:12.429Z,100604.00
2022-10-19T04:59:40.431Z,100606.00
2022-10-19T05:02:08.453Z,100604.00
2022-10-19T05:04:36.455Z,100603.00
2022-10-19T05:07:05.828Z,100602.00
2022-10-19T05:09:33.832Z,100600.00
2022-10-19T05:12:01.849Z,100616.00
2022-10-19T05:14:29.830Z,100608.00
2022-10-19T05:16:57.813Z,100605.00
2022-10-19T05:19:26.043Z,100605.00
2022-10-19T05:21:54.042Z,100612.00
2022-10-19T05:24:23.534Z,100603.00
2022-10-19T05:26:51.562Z,100611.00
2022-10-19T05:29:19.576Z,100612.00
2022-10-19T05:31:47.568Z,100614.00
2022-10-19T05:34:15.563Z,100611.00
2022-10-19T05:36:43.581Z,100612.00
2022-10-19T05:39:16.110Z,100608.00
2022-10-19T05:41:47.411Z,100618.00
2022-10-19T05:44:18.501Z,100618.00
2022-10-19T05:46:47.361Z,100622.00
2022-10-19T05:49:17.792Z,100616.00
2022-10-19T05:51:46.395Z,100623.00
2022-10-19T05:54:15.721Z,100626.00
2022-10-19T05:56:45.870Z,100624.00
2022-10-19T05:59:18.687Z,100622.00
2022-10-19T06:01:47.683Z,100629.00
2022-10-19T06:06:45.832Z,100631.00
2022-10-19T06:09:14.049Z,100630.00
2022-10-19T06:11:44.814Z,100633.00
2022-10-19T06:14:16.248Z,100631.00
2022-10-19T06:16:45.792Z,100644.00
2022-10-19T06:19:14.003Z,100642.00
2022-10-19T06:21:44.959Z,100642.00
2022-10-19T06:24:14.256Z,100652.00
2022-10-19T06:26:42.314Z,100647.00
2022-10-19T06:29:12.255Z,100653.00
2022-10-19T06:31:40.295Z,100648.00
2022-10-19T06:34:08.636Z,100658.00
2022-10-19T06:36:36.718Z,100654.00
2022-10-19T06:39:05.417Z,100662.00
2022-10-19T06:41:34.924Z,100662.00
2022-10-19T06:44:20.677Z,100660.00
2022-10-19T06:46:48.746Z,100669.00
2022-10-19T06:49:16.887Z,100670.00
2022-10-19T06:51:44.906Z,100661.00
2022-10-19T06:54:12.920Z,100658.00
2022-10-19T06:56:40.909Z,100664.00
2022-10-19T06:59:09.070Z,100670.00
2022-10-19T07:01:38.392Z,100665.00
2022-10-19T07:04:06.728Z,100664.00
2022-10-19T07:06:34.801Z,100668.00
2022-10-19T07:09:02.955Z,100666.00
2022-10-19T07:11:31.001Z,100676.00
2022-10-19T07:13:59.027Z,100684.00
2022-10-19T07:16:27.090Z,100684.00
2022-10-19T07:18:56.436Z,100677.00
2022-10-19T07:21:24.814Z,100683.00
2022-10-19T07:23:53.103Z,100683.00
2022-10-19T07:26:26.707Z,100687.00
2022-10-19T07:28:57.834Z,100682.00
2022-10-19T07:31:29.027Z,100687.00
2022-10-19T07:34:00.854Z,100694.00
2022-10-19T07:36:31.160Z,100691.00
2022-10-19T07:38:59.237Z,100691.00
2022-10-19T07:41:27.646Z,100705.00
2022-10-19T07:43:57.731Z,100698.00
2022-10-19T07:46:29.512Z,100690.00
2022-10-19T07:48:58.845Z,100701.00
2022-10-19T07:53:58.659Z,100698.00
2022-10-19T07:56:28.692Z,100697.00
2022-10-19T07:58:59.771Z,100699.00
2022-10-19T08:01:30.152Z,100694.00
2022-10-19T08:06:49.214Z,100694.00
2022-10-19T08:09:40.080Z,100704.00
2022-10-19T08:12:07.044Z,100699.00
2022-10-19T08:14:35.558Z,100704.00
2022-10-19T08:17:03.999Z,100702.00
2022-10-19T08:19:33.500Z,100712.00
2022-10-19T08:22:01.491Z,100715.00
2022-10-19T08:24:29.622Z,100701.00
2022-10-19T08:26:58.677Z,100710.00
2022-10-19T08:29:29.125Z,100712.00
2022-10-19T08:32:00.049Z,100722.00
2022-10-19T08:34:28.278Z,100721.00
2022-10-19T08:36:57.687Z,100706.00
2022-10-19T08:39:25.740Z,100708.00
2022-10-19T08:42:02.886Z,100706.00
2022-10-19T08:45:17.533Z,100707.00
2022-10-19T08:48:00.623Z,100695.00
2022-10-19T08:50:37.503Z,100705.00
2022-10-19T08:53:13.130Z,100710.00
2022-10-19T08:55:54.933Z,100703.00
2022-10-19T08:58:48.474Z,100699.00
2022-10-19T09:01:33.842Z,100709.00
2022-10-19T09:04:12.269Z,100705.00
2022-10-19T09:07:00.613Z,100699.00
2022-10-19T09:09:33.646Z,100706.00
2022-10-19T09:12:08.219Z,100697.00
2022-10-19T09:14:50.776Z,100693.00
2022-10-19T09:17:18.765Z,100694.00
2022-10-19T09:19:46.873Z,100692.00
2022-10-19T09:22:21.621Z,100704.00
2022-10-19T09:24:55.159Z,100702.00
2022-10-19T09:27:25.557Z,100691.00
2022-10-19T09:29:58.410Z,100697.00
2022-10-19T09:32:32.437Z,100694.00
2022-10-19T09:35:04.576Z,100695.00
2022-10-19T09:37:41.256Z,100700.00
2022-10-19T09:40:20.156Z,100701.00
2022-10-19T09:42:52.841Z,100702.00
2022-10-19T09:45:35.368Z,100710.00
2022-10-19T09:48:13.567Z,100707.00
2022-10-19T09:50:45.534Z,100722.00
2022-10-19T09:53:21.794Z,100718.00
2022-10-19T09:55:59.895Z,100710.00
2022-10-19T09:58:32.957Z,100714.00
2022-10-19T10:01:03.703Z,100703.00
2022-10-19T10:03:36.619Z,100715.00
2022-10-19T10:06:09.579Z,100714.00
2022-10-19T10:08:46.316Z,100709.00
2022-10-19T10:11:24.863Z,100716.00
2022-10-19T10:13:56.888Z,100717.00
2022-10-19T10:16:33.295Z,100714.00
2022-10-19T10:19:06.772Z,100706.00
2022-10-19T10:21:48.234Z,100707.00
2022-10-19T10:24:21.616Z,100713.00
2022-10-19T10:26:53.941Z,100702.00
2022-10-19T10:29:24.649Z,100698.00
2022-10-19T10:31:57.328Z,100691.00
2022-10-19T10:34:45.987Z,100703.00
2022-10-19T10:37:22.775Z,100705.00
2022-10-19T10:39:56.619Z,100708.00
2022-10-19T10:42:35.966Z,100727.00
2022-10-19T10:45:11.599Z,100714.00
2022-10-19T10:47:40.784Z,100708.00
2022-10-19T10:50:20.514Z,100705.00
2022-10-19T10:53:00.722Z,100710.00
2022-10-19T10:55:30.354Z,100715.00
2022-10-19T10:58:16.725Z,100710.00
2022-10-19T11:00:47.683Z,100708.00
2022-10-19T11:03:25.053Z,100720.00
2022-10-19T11:05:58.676Z,100716.00
2022-10-19T11:08:34.628Z,100704.00
2022-10-19T11:11:15.135Z,100713.00
2022-10-19T11:13:52.455Z,100719.00
2022-10-19T11:16:27.677Z,100709.00
2022-10-19T11:19:07.602Z,100709.00
2022-10-19T11:21:45.312Z,100710.00
2022-10-19T11:24:23.456Z,100707.00
2022-10-19T11:27:12.314Z,100706.00
2022-10-19T11:30:02.477Z,100711.00
2022-10-19T11:32:46.012Z,100676.00
2022-10-19T11:35:46.859Z,100690.00
2022-10-19T11:38:35.148Z,100708.00
2022-10-19T11:41:27.514Z,100709.00
2022-10-19T11:44:24.052Z,100703.00
2022-10-19T11:47:19.312Z,100696.00
2022-10-19T11:50:03.590Z,100701.00
2022-10-19T11:52:47.019Z,100702.00
2022-10-19T11:55:34.302Z,100692.00
2022-10-19T11:58:34.885Z,100688.00
2022-10-19T12:01:22.948Z,100689.00
2022-10-19T12:04:43.745Z,100677.00
2022-10-19T12:07:55.589Z,100679.00
2022-10-19T12:10:32.346Z,100687.00
2022-10-19T12:13:07.117Z,100679.00
2022-10-19T12:15:43.017Z,100673.00
2022-10-19T12:18:20.433Z,100678.00
2022-10-19T12:20:55.833Z,100679.00
2022-10-19T12:23:33.150Z,100667.00
2022-10-19T12:26:07.641Z,100671.00
2022-10-19T12:28:41.841Z,100671.00
2022-10-19T12:31:12.485Z,100669.00
2022-10-19T12:33:50.498Z,100667.00
2022-10-19T12:36:35.888Z,100668.00
2022-10-19T12:39:17.527Z,100669.00
2022-10-19T12:41:57.531Z,100655.00
2022-10-19T12:44:58.874Z,100648.00
2022-10-19T12:47:27.739Z,100668.00
2022-10-19T12:49:56.539Z,100656.00
2022-10-19T12:52:40.732Z,100651.00
2022-10-19T12:55:25.416Z,100655.00
2022-10-19T12:58:05.782Z,100651.00
2022-10-19T13:00:37.247Z,100649.00
2022-10-19T13:03:14.972Z,100667.00
2022-10-19T13:05:56.204Z,100665.00
2022-10-19T13:08:33.130Z,100657.00
2022-10-19T13:11:08.283Z,100655.00
2022-10-19T13:14:02.496Z,100652.00
2022-10-19T13:16:58.855Z,100654.00
2022-10-19T13:19:27.599Z,100651.00
2022-10-19T13:22:29.260Z,100620.00
2022-10-19T13:25:30.589Z,100648.00
2022-10-19T13:28:03.278Z,100648.00
2022-10-19T13:31:08.182Z,100606.00
2022-10-19T13:33:55.491Z,100638.00
2022-10-19T13:36:25.922Z,100641.00
2022-10-19T13:39:14.861Z,100644.00
2022-10-19T13:41:53.634Z,100644.00
2022-10-19T13:44:26.878Z,100646.00
2022-10-19T13:47:34.343Z,100616.00
2022-10-19T13:50:36.167Z,100643.00
2022-10-19T13:53:35.518Z,100645.00
2022-10-19T13:59:43.849Z,100602.00
2022-10-19T14:03:01.653Z,100643.00
2022-10-19T14:06:06.990Z,100645.00
2022-10-19T14:08:54.178Z,100640.00
2022-10-19T14:11:29.268Z,100647.00
2022-10-19T14:14:17.336Z,100638.00
2022-10-19T14:16:59.637Z,100649.00
2022-10-19T14:19:35.090Z,100634.00
2022-10-19T14:22:21.866Z,100629.00
2022-10-19T14:24:50.034Z,100639.00
2022-10-19T14:27:24.028Z,100633.00
2022-10-19T14:29:55.279Z,100645.00
2022-10-19T14:32:28.769Z,100633.00
2022-10-19T14:35:06.743Z,100637.00
2022-10-19T14:37:35.905Z,100628.00
2022-10-19T14:40:26.611Z,100632.00
2022-10-19T14:42:57.825Z,100631.00
2022-10-19T14:45:28.932Z,100628.00
2022-10-19T14:48:02.077Z,100626.00
2022-10-19T14:50:43.233Z,100629.00
2022-10-19T14:53:31.228Z,100624.00
2022-10-19T14:56:05.160Z,100627.00
2022-10-19T14:58:42.437Z,100624.00
2022-10-19T15:01:12.798Z,100629.00
2022-10-19T15:03:46.736Z,100622.00
2022-10-19T15:06:20.917Z,100622.00
2022-10-19T15:11:31.384Z,100623.00
2022-10-19T15:14:07.308Z,100621.00
2022-10-19T15:16:51.471Z,100624.00
2022-10-19T15:19:28.644Z,100609.00
2022-10-19T15:22:19.975Z,100616.00
2022-10-19T15:25:02.255Z,100616.00
2022-10-19T15:27:34.197Z,100609.00
2022-10-19T15:30:07.252Z,100624.00
2022-10-19T15:32:38.764Z,100572.00
2022-10-19T15:35:18.799Z,100609.00
2022-10-19T15:37:50.171Z,100623.00
2022-10-19T15:40:25.147Z,100619.00
2022-10-19T15:42:53.525Z,100618.00
2022-10-19T15:45:36.369Z,100604.00
2022-10-19T15:48:26.839Z,100606.00
2022-10-19T15:50:58.576Z,100599.00
2022-10-19T15:53:28.168Z,100588.00
2022-10-19T15:55:56.339Z,100601.00
2022-10-19T15:58:25.187Z,100599.00
2022-10-19T16:00:53.355Z,100607.00
2022-10-19T16:03:21.342Z,100596.00
2022-10-19T16:05:49.517Z,100605.00
2022-10-19T16:08:18.931Z,100596.00
2022-10-19T16:10:46.959Z,100596.00
2022-10-19T16:13:14.950Z,100595.00
2022-10-19T16:15:43.107Z,100596.00
2022-10-19T16:18:12.212Z,100601.00
2022-10-19T16:20:40.387Z,100603.00
2022-10-19T16:23:09.289Z,100597.00
2022-10-19T16:25:38.685Z,100593.00
2022-10-19T16:28:06.759Z,100591.00
2022-10-19T16:30:34.789Z,100593.00
2022-10-19T16:33:02.849Z,100605.00
2022-10-19T16:35:30.926Z,100600.00
2022-10-19T16:37:59.046Z,100603.00
2022-10-19T16:40:27.090Z,100597.00
2022-10-19T16:42:58.766Z,100603.00
2022-10-19T16:45:27.614Z,100602.00
2022-10-19T16:47:55.707Z,100608.00
2022-10-19T16:50:23.887Z,100609.00
2022-10-19T16:53:06.009Z,100612.00
2022-10-19T16:55:34.068Z,100604.00
2022-10-19T16:58:03.537Z,100614.00
2022-10-19T17:00:31.683Z,100614.00
2022-10-19T17:03:00.466Z,100586.00
2022-10-19T17:05:28.796Z,100618.00
2022-10-19T17:07:56.827Z,100620.00
2022-10-19T17:10:25.536Z,100623.00
2022-10-19T17:12:54.214Z,100618.00
2022-10-19T17:15:42.502Z,100598.00
2022-10-19T17:18:11.730Z,100623.00
2022-10-19T17:20:39.955Z,100626.00
2022-10-19T17:23:08.096Z,100620.00
2022-10-19T17:25:36.387Z,100629.00
2022-10-19T17:28:04.704Z,100633.00
2022-10-19T17:30:34.408Z,100628.00
2022-10-19T17:33:02.735Z,100637.00
2022-10-19T17:35:30.850Z,100637.00
2022-10-19T17:37:59.253Z,100619.00
2022-10-19T17:40:28.229Z,100635.00
2022-10-19T17:42:56.389Z,100622.00
2022-10-19T17:45:24.562Z,100632.00
2022-10-19T17:47:55.784Z,100627.00
2022-10-19T17:50:24.741Z,100622.00
2022-10-19T17:52:54.722Z,100630.00
2022-10-19T17:57:59.069Z,100630.00
2022-10-19T18:00:28.667Z,100630.00
2022-10-19T18:02:59.316Z,100630.00
2022-10-19T18:05:28.805Z,100630.00
2022-10-19T18:07:56.820Z,100628.00
2022-10-19T18:10:25.329Z,100634.00
2022-10-19T18:12:54.578Z,100634.00
2022-10-19T18:15:22.710Z,100621.00
2022-10-19T18:17:51.083Z,100637.00
2022-10-19T18:20:20.527Z,100637.00
2022-10-19T18:22:49.608Z,100626.00
2022-10-19T18:25:21.820Z,100627.00
2022-10-19T18:28:01.773Z,100631.00
2022-10-19T18:30:30.672Z,100629.00
2022-10-19T18:33:01.458Z,100631.00
2022-10-19T18:35:38.714Z,100622.00
2022-10-19T18:38:08.662Z,100627.00
2022-10-19T18:40:39.566Z,100628.00
2022-10-19T18:43:07.834Z,100624.00
2022-10-19T18:45:36.598Z,100625.00
2022-10-19T18:48:05.100Z,100610.00
2022-10-19T18:50:34.469Z,100611.00
2022-10-19T18:53:03.196Z,100612.00
2022-10-19T18:55:31.319Z,100605.00
2022-10-19T18:57:59.578Z,100611.00
2022-10-19T19:00:28.420Z,100594.00
2022-10-19T19:02:57.899Z,100592.00
2022-10-19T19:05:26.177Z,100603.00
2022-10-19T19:07:56.309Z,100598.00
2022-10-19T19:10:27.019Z,100596.00
2022-10-19T19:12:57.139Z,100591.00
2022-10-19T19:15:27.176Z,100600.00
2022-10-19T19:17:56.970Z,100595.00
2022-10-19T19:20:25.174Z,100587.00
2022-10-19T19:22:53.270Z,100595.00
2022-10-19T19:25:22.764Z,100594.00
2022-10-19T19:27:51.637Z,100594.00
2022-10-19T19:30:19.694Z,100598.00
2022-10-19T19:32:47.946Z,100593.00
2022-10-19T19:35:16.785Z,100591.00
2022-10-19T19:37:45.139Z,100599.00
2022-10-19T19:40:13.933Z,100561.00
2022-10-19T19:42:43.290Z,100597.00
2022-10-19T19:45:13.553Z,100602.00
2022-10-19T19:47:41.981Z,100580.00
2022-10-19T19:50:11.020Z,100600.00
2022-10-19T19:52:40.525Z,100589.00
2022-10-19T19:55:10.075Z,100590.00
2022-10-19T19:57:38.466Z,100598.00
2022-10-19T20:00:10.372Z,100599.00
2022-10-19T20:02:41.420Z,100600.00
2022-10-19T20:05:10.736Z,100590.00
2022-10-19T20:07:38.830Z,100609.00
2022-10-19T20:10:08.241Z,100602.00
2022-10-19T20:12:36.347Z,100606.00
2022-10-19T20:15:04.925Z,100572.00
2022-10-19T20:17:35.239Z,100615.00
2022-10-19T20:20:03.557Z,100616.00
2022-10-19T20:22:31.824Z,100615.00
2022-10-19T20:25:00.225Z,100618.00
2022-10-19T20:27:28.766Z,100619.00
2022-10-19T20:29:58.610Z,100617.00
2022-10-19T20:32:27.599Z,100616.00
2022-10-19T20:34:57.625Z,100616.00
2022-10-19T20:37:26.610Z,100614.00
2022-10-19T20:39:55.191Z,100570.00
2022-10-19T20:42:23.562Z,100617.00
2022-10-19T20:44:54.601Z,100614.00
2022-10-19T20:47:22.945Z,100619.00
2022-10-19T20:49:51.010Z,100622.00
2022-10-19T20:52:20.474Z,100614.00
2022-10-19T20:54:50.137Z,100619.00
2022-10-19T20:57:18.362Z,100618.00
2022-10-19T20:59:46.765Z,100623.00
2022-10-19T21:02:15.421Z,100608.00
2022-10-19T21:04:43.474Z,100614.00
2022-10-19T21:07:11.589Z,100612.00
2022-10-19T21:09:42.737Z,100604.00
2022-10-19T21:12:11.212Z,100603.00
2022-10-19T21:14:40.211Z,100602.00
2022-10-19T21:17:08.568Z,100594.00
2022-10-19T21:19:36.719Z,100603.00
2022-10-19T21:22:06.250Z,100604.00
2022-10-19T21:24:37.082Z,100590.00
2022-10-19T21:27:09.431Z,100590.00
2022-10-19T21:29:38.598Z,100592.00
2022-10-19T21:32:07.545Z,100573.00
2022-10-19T21:34:35.962Z,100588.00
2022-10-19T21:37:04.006Z,100580.00
2022-10-19T21:39:32.158Z,100577.00
2022-10-19T21:42:00.292Z,100574.00
2022-10-19T21:44:29.733Z,100574.00
2022-10-19T21:46:57.825Z,100571.00
2022-10-19T21:49:25.900Z,100574.00
2022-10-19T21:51:55.819Z,100567.00
2022-10-19T21:54:26.352Z,100541.00
2022-10-19T21:56:55.876Z,100558.00
2022-10-19T21:59:24.235Z,100561.00
2022-10-19T22:01:55.189Z,100556.00
2022-10-19T22:04:23.966Z,100555.00
2022-10-19T22:06:52.120Z,100552.00
2022-10-19T22:09:23.125Z,100549.00
2022-10-19T22:11:51.356Z,100547.00
2022-10-19T22:14:19.701Z,100544.00
2022-10-19T22:16:47.939Z,100542.00
2022-10-19T22:19:17.759Z,100535.00
2022-10-19T22:21:45.864Z,100531.00
2022-10-19T22:24:16.594Z,100532.00
2022-10-19T22:26:50.553Z,100545.00
2022-10-19T22:29:19.514Z,100524.00
2022-10-19T22:31:47.607Z,100532.00
2022-10-19T22:34:18.825Z,100530.00
2022-10-19T22:36:47.022Z,100532.00
2022-10-19T22:39:16.348Z,100528.00
2022-10-19T22:41:44.472Z,100531.00
2022-10-19T22:44:12.474Z,100512.00
2022-10-19T22:46:40.518Z,100516.00
2022-10-19T22:51:44.215Z,100517.00
2022-10-19T22:54:12.839Z,100521.00
2022-10-19T22:56:41.516Z,100516.00
2022-10-19T22:59:10.474Z,100521.00
2022-10-19T23:01:38.933Z,100514.00
2022-10-19T23:04:07.232Z,100514.00
2022-10-19T23:06:35.335Z,100518.00
2022-10-19T23:09:05.043Z,100519.00
2022-10-19T23:11:33.144Z,100506.00
2022-10-19T23:14:01.292Z,100506.00
2022-10-19T23:16:29.433Z,100505.00
2022-10-19T23:18:57.541Z,100504.00
2022-10-19T23:21:25.597Z,100512.00
2022-10-19T23:23:53.636Z,100506.00
2022-10-19T23:26:24.678Z,100505.00
2022-10-19T23:28:53.487Z,100497.00
2022-10-19T23:31:25.067Z,100487.00
2022-10-19T23:33:54.558Z,100493.00
2022-10-19T23:36:26.725Z,100490.00
2022-10-19T23:38:56.662Z,100491.00
2022-10-19T23:41:26.570Z,100494.00
2022-10-19T23:43:54.855Z,100497.00
2022-10-19T23:46:22.929Z,100498.00
2022-10-19T23:48:50.970Z,100489.00
2022-10-19T23:51:22.126Z,100479.00
2022-10-19T23:53:53.029Z,100471.00
2022-10-19T23:56:24.476Z,100476.00
2022-10-19T23:58:54.724Z,100470.00
